CheckWX is a tool to help pilots better visualize weather data.  It is not intended as a substitute for an official pre-flight weather briefing.

10:31:28 UTC

KDSV METAR
Dansville Municipal Airport
Dansville, New York, USA
Current

37 mins ago

KDSV 190954Z AUTO 14005KT 10SM -RA FEW100 22/18 A2994 RMK AO2 RAB46 SLP143 P0000 T02170183
Observed
Aug-19 @ 09:54 UTC
Wind
  • 140° at 5 KTS
Visibility
10 SM
Flight Rules
VFR
Conditions
Light Rain
Cloud Levels
  • Few at 10,000' AGL
Temperature
22°C / 72°F
Dewpoint
18°C / 64°F
Humidity
78%
Altimeter
29.94" Hg
Pressure
1013.92 hPa
Current Rain
0.01"
Previous

2 hours ago

KDSV 190854Z AUTO 13003KT 10SM SCT090 21/18 A2995 RMK AO2 RAB0758E08 SLP144 P0000 60000 T02110178 53012
Observed
Aug-19 @ 08:54 UTC
Wind
  • 130° at 3 KTS
Visibility
10 SM
Flight Rules
VFR
Cloud Levels
  • Scattered at 9,000' AGL
Temperature
21°C / 70°F
Dewpoint
18°C / 64°F
Humidity
83%
Altimeter
29.95" Hg
Pressure
1014.22 hPa
Current Rain
0.01"
Previous

3 hours ago

KDSV 190754Z AUTO 04004KT 10SM BKN043 BKN055 22/18 A2994 RMK AO2 SLP143 T02220178
Observed
Aug-19 @ 07:54 UTC
Wind
  • 040° at 4 KTS
Visibility
10 SM
Flight Rules
VFR
Cloud Levels
  • Broken at 4,300' AGL
  • Broken at 5,500' AGL
Temperature
22°C / 72°F
Dewpoint
18°C / 64°F
Humidity
78%
Altimeter
29.94" Hg
Pressure
1013.92 hPa